Fort Atkinson, Wisconsin
Current Conditions -  °F | °C
As of 12:55 PM on Thursday 23 Oct 2014 (Local Time) from KRYV Reporting Station
Scattered Clouds Scattered Clouds  
Wind Chill: 55°   Ceiling: Unl
Heat Index: 55°   Visibility: 10mi
Dew Point: 41°   Wind: 9mph
Humidity: 60%   Direction: 190°S
Pressure: 30.09"   Gusts: NA
Location:  42.93°N, 88.84°W
Report Text: KRYV 231755Z AUTO 19008KT 10SM SCT048 13/05 A3009 RMK AO2 T01280051 10128 20010
Loading
Personal Weather Stations






























Interactive Weather Map
Tropical Storm Tracking
New forecast layout! Learn more

10-Day Weather Forecast

Advertisements
Track Severe Weather on mobile